sensor_id;sensor_type;location;lat;lon;timestamp;P1;durP1;ratioP1;P2;durP2;ratioP2
46084;SDS011;31823;47.032;8.310;2023-07-22T00:00:40;10.20;;;4.53;;
46084;SDS011;31823;47.032;8.310;2023-07-22T00:03:05;7.88;;;5.00;;
46084;SDS011;31823;47.032;8.310;2023-07-22T00:05:31;6.05;;;4.50;;
46084;SDS011;31823;47.032;8.310;2023-07-22T00:07:58;6.00;;;4.75;;
46084;SDS011;31823;47.032;8.310;2023-07-22T00:10:23;6.97;;;4.82;;
46084;SDS011;31823;47.032;8.310;2023-07-22T00:12:49;12.38;;;4.50;;
46084;SDS011;31823;47.032;8.310;2023-07-22T00:15:14;6.07;;;4.35;;
46084;SDS011;31823;47.032;8.310;2023-07-22T00:17:40;5.70;;;4.25;;
46084;SDS011;31823;47.032;8.310;2023-07-22T00:20:06;6.65;;;5.15;;
46084;SDS011;31823;47.032;8.310;2023-07-22T00:22:36;11.35;;;4.95;;
46084;SDS011;31823;47.032;8.310;2023-07-22T00:25:02;6.72;;;4.72;;
46084;SDS011;31823;47.032;8.310;2023-07-22T00:27:28;7.82;;;4.85;;
46084;SDS011;31823;47.032;8.310;2023-07-22T00:29:53;7.00;;;4.85;;
46084;SDS011;31823;47.032;8.310;2023-07-22T00:32:19;5.50;;;4.10;;
46084;SDS011;31823;47.032;8.310;2023-07-22T00:34:44;7.25;;;4.88;;
46084;SDS011;31823;47.032;8.310;2023-07-22T00:37:10;6.25;;;4.82;;
46084;SDS011;31823;47.032;8.310;2023-07-22T00:39:36;8.07;;;4.80;;
46084;SDS011;31823;47.032;8.310;2023-07-22T00:42:01;7.22;;;5.10;;
46084;SDS011;31823;47.032;8.310;2023-07-22T00:44:27;9.68;;;4.68;;
46084;SDS011;31823;47.032;8.310;2023-07-22T00:46:53;5.85;;;4.60;;
46084;SDS011;31823;47.032;8.310;2023-07-22T00:49:20;6.97;;;4.53;;
46084;SDS011;31823;47.032;8.310;2023-07-22T00:51:47;7.22;;;4.20;;
46084;SDS011;31823;47.032;8.310;2023-07-22T00:54:13;7.75;;;5.35;;
46084;SDS011;31823;47.032;8.310;2023-07-22T00:56:39;12.15;;;5.72;;
46084;SDS011;31823;47.032;8.310;2023-07-22T00:59:06;7.57;;;5.07;;
46084;SDS011;31823;47.032;8.310;2023-07-22T01:01:32;6.55;;;4.88;;
46084;SDS011;31823;47.032;8.310;2023-07-22T01:03:57;5.90;;;4.93;;
46084;SDS011;31823;47.032;8.310;2023-07-22T01:06:23;13.23;;;6.55;;
46084;SDS011;31823;47.032;8.310;2023-07-22T01:08:54;6.78;;;4.55;;
46084;SDS011;31823;47.032;8.310;2023-07-22T01:11:19;9.90;;;5.45;;
46084;SDS011;31823;47.032;8.310;2023-07-22T01:13:45;6.72;;;4.90;;
46084;SDS011;31823;47.032;8.310;2023-07-22T01:16:14;6.35;;;4.93;;
46084;SDS011;31823;47.032;8.310;2023-07-22T01:18:39;8.48;;;4.70;;
46084;SDS011;31823;47.032;8.310;2023-07-22T01:21:05;7.50;;;5.05;;
46084;SDS011;31823;47.032;8.310;2023-07-22T01:23:31;6.57;;;4.78;;
46084;SDS011;31823;47.032;8.310;2023-07-22T01:25:57;6.57;;;4.72;;
46084;SDS011;31823;47.032;8.310;2023-07-22T01:28:23;6.13;;;5.00;;
46084;SDS011;31823;47.032;8.310;2023-07-22T01:30:49;7.43;;;4.68;;
46084;SDS011;31823;47.032;8.310;2023-07-22T01:33:15;8.40;;;4.90;;
46084;SDS011;31823;47.032;8.310;2023-07-22T01:35:40;8.27;;;5.50;;
46084;SDS011;31823;47.032;8.310;2023-07-22T01:38:06;6.72;;;4.53;;
46084;SDS011;31823;47.032;8.310;2023-07-22T01:40:33;8.27;;;5.32;;
46084;SDS011;31823;47.032;8.310;2023-07-22T01:42:59;7.38;;;5.07;;
46084;SDS011;31823;47.032;8.310;2023-07-22T01:45:25;10.50;;;6.25;;
46084;SDS011;31823;47.032;8.310;2023-07-22T01:47:51;10.18;;;5.05;;
46084;SDS011;31823;47.032;8.310;2023-07-22T01:50:16;6.85;;;5.30;;
46084;SDS011;31823;47.032;8.310;2023-07-22T01:52:43;10.38;;;5.80;;
46084;SDS011;31823;47.032;8.310;2023-07-22T01:55:11;7.53;;;5.18;;
46084;SDS011;31823;47.032;8.310;2023-07-22T01:57:37;8.48;;;4.65;;
46084;SDS011;31823;47.032;8.310;2023-07-22T02:00:04;6.60;;;5.00;;
46084;SDS011;31823;47.032;8.310;2023-07-22T02:02:30;8.90;;;5.68;;
46084;SDS011;31823;47.032;8.310;2023-07-22T02:04:56;11.57;;;7.30;;
46084;SDS011;31823;47.032;8.310;2023-07-22T02:07:21;6.68;;;5.50;;
46084;SDS011;31823;47.032;8.310;2023-07-22T02:09:47;7.70;;;6.15;;
46084;SDS011;31823;47.032;8.310;2023-07-22T02:12:14;11.15;;;5.90;;
46084;SDS011;31823;47.032;8.310;2023-07-22T02:14:39;9.30;;;5.75;;
46084;SDS011;31823;47.032;8.310;2023-07-22T02:17:05;9.02;;;6.32;;
46084;SDS011;31823;47.032;8.310;2023-07-22T02:19:30;7.57;;;6.03;;
46084;SDS011;31823;47.032;8.310;2023-07-22T02:21:57;7.32;;;5.60;;
46084;SDS011;31823;47.032;8.310;2023-07-22T02:24:22;8.52;;;5.28;;
46084;SDS011;31823;47.032;8.310;2023-07-22T02:26:48;8.02;;;6.43;;
46084;SDS011;31823;47.032;8.310;2023-07-22T02:29:15;7.00;;;5.85;;
46084;SDS011;31823;47.032;8.310;2023-07-22T02:31:40;6.93;;;5.32;;
46084;SDS011;31823;47.032;8.310;2023-07-22T02:34:06;9.18;;;6.38;;
46084;SDS011;31823;47.032;8.310;2023-07-22T02:36:31;7.28;;;5.32;;
46084;SDS011;31823;47.032;8.310;2023-07-22T02:38:57;12.32;;;6.35;;
46084;SDS011;31823;47.032;8.310;2023-07-22T02:41:22;8.68;;;5.50;;
46084;SDS011;31823;47.032;8.310;2023-07-22T02:43:48;9.10;;;5.40;;
46084;SDS011;31823;47.032;8.310;2023-07-22T02:46:13;6.97;;;4.85;;
46084;SDS011;31823;47.032;8.310;2023-07-22T02:48:39;6.78;;;4.93;;
46084;SDS011;31823;47.032;8.310;2023-07-22T02:51:06;7.88;;;4.55;;
46084;SDS011;31823;47.032;8.310;2023-07-22T02:53:32;8.82;;;5.18;;
46084;SDS011;31823;47.032;8.310;2023-07-22T02:55:59;7.00;;;5.45;;
46084;SDS011;31823;47.032;8.310;2023-07-22T02:58:25;6.45;;;5.00;;
46084;SDS011;31823;47.032;8.310;2023-07-22T03:00:51;5.72;;;4.63;;
46084;SDS011;31823;47.032;8.310;2023-07-22T03:03:16;8.50;;;4.88;;
46084;SDS011;31823;47.032;8.310;2023-07-22T03:05:44;6.93;;;5.22;;
46084;SDS011;31823;47.032;8.310;2023-07-22T03:08:09;11.10;;;5.15;;
46084;SDS011;31823;47.032;8.310;2023-07-22T03:10:35;6.55;;;5.55;;
46084;SDS011;31823;47.032;8.310;2023-07-22T03:13:00;6.57;;;4.85;;
46084;SDS011;31823;47.032;8.310;2023-07-22T03:15:26;9.60;;;5.30;;
46084;SDS011;31823;47.032;8.310;2023-07-22T03:17:53;11.07;;;5.70;;
46084;SDS011;31823;47.032;8.310;2023-07-22T03:20:20;7.72;;;5.30;;
46084;SDS011;31823;47.032;8.310;2023-07-22T03:22:47;8.73;;;5.22;;
46084;SDS011;31823;47.032;8.310;2023-07-22T03:25:14;9.10;;;6.00;;
46084;SDS011;31823;47.032;8.310;2023-07-22T03:27:42;8.27;;;5.03;;
46084;SDS011;31823;47.032;8.310;2023-07-22T03:30:08;6.57;;;5.20;;
46084;SDS011;31823;47.032;8.310;2023-07-22T03:32:36;12.18;;;5.55;;
46084;SDS011;31823;47.032;8.310;2023-07-22T03:35:01;9.27;;;5.80;;
46084;SDS011;31823;47.032;8.310;2023-07-22T03:37:28;7.60;;;5.60;;
46084;SDS011;31823;47.032;8.310;2023-07-22T03:39:53;7.80;;;5.22;;
46084;SDS011;31823;47.032;8.310;2023-07-22T03:42:19;9.25;;;5.78;;
46084;SDS011;31823;47.032;8.310;2023-07-22T03:44:45;6.97;;;5.80;;
46084;SDS011;31823;47.032;8.310;2023-07-22T03:47:10;7.95;;;5.20;;
46084;SDS011;31823;47.032;8.310;2023-07-22T03:49:36;7.25;;;5.55;;
46084;SDS011;31823;47.032;8.310;2023-07-22T03:52:01;8.93;;;5.53;;
46084;SDS011;31823;47.032;8.310;2023-07-22T03:54:27;7.22;;;5.22;;
46084;SDS011;31823;47.032;8.310;2023-07-22T03:56:52;10.77;;;6.20;;
46084;SDS011;31823;47.032;8.310;2023-07-22T03:59:18;9.00;;;5.85;;
46084;SDS011;31823;47.032;8.310;2023-07-22T04:01:43;9.00;;;5.13;;
46084;SDS011;31823;47.032;8.310;2023-07-22T04:04:09;5.75;;;5.03;;
46084;SDS011;31823;47.032;8.310;2023-07-22T04:06:35;7.20;;;5.70;;
46084;SDS011;31823;47.032;8.310;2023-07-22T04:09:00;9.55;;;5.43;;
46084;SDS011;31823;47.032;8.310;2023-07-22T04:11:26;10.05;;;5.80;;
46084;SDS011;31823;47.032;8.310;2023-07-22T04:13:53;7.57;;;5.15;;
46084;SDS011;31823;47.032;8.310;2023-07-22T04:16:18;6.30;;;5.10;;
46084;SDS011;31823;47.032;8.310;2023-07-22T04:18:44;7.95;;;5.30;;
46084;SDS011;31823;47.032;8.310;2023-07-22T04:21:09;8.95;;;5.97;;
46084;SDS011;31823;47.032;8.310;2023-07-22T04:23:35;8.65;;;4.78;;
46084;SDS011;31823;47.032;8.310;2023-07-22T04:26:02;7.15;;;5.57;;
46084;SDS011;31823;47.032;8.310;2023-07-22T04:28:32;7.20;;;4.93;;
46084;SDS011;31823;47.032;8.310;2023-07-22T04:30:59;7.65;;;5.05;;
46084;SDS011;31823;47.032;8.310;2023-07-22T04:33:25;7.53;;;4.90;;
46084;SDS011;31823;47.032;8.310;2023-07-22T04:35:53;12.07;;;5.32;;
46084;SDS011;31823;47.032;8.310;2023-07-22T04:38:20;6.82;;;5.10;;
46084;SDS011;31823;47.032;8.310;2023-07-22T04:40:46;8.48;;;4.88;;
46084;SDS011;31823;47.032;8.310;2023-07-22T04:43:12;7.40;;;5.07;;
46084;SDS011;31823;47.032;8.310;2023-07-22T04:45:37;8.75;;;5.57;;
46084;SDS011;31823;47.032;8.310;2023-07-22T04:48:05;7.55;;;5.50;;
46084;SDS011;31823;47.032;8.310;2023-07-22T04:50:31;7.97;;;5.60;;
46084;SDS011;31823;47.032;8.310;2023-07-22T04:52:57;7.05;;;5.80;;
46084;SDS011;31823;47.032;8.310;2023-07-22T04:55:23;9.00;;;6.15;;
46084;SDS011;31823;47.032;8.310;2023-07-22T04:57:48;8.05;;;5.57;;
46084;SDS011;31823;47.032;8.310;2023-07-22T05:00:16;8.25;;;5.55;;
46084;SDS011;31823;47.032;8.310;2023-07-22T05:02:44;7.63;;;4.97;;
46084;SDS011;31823;47.032;8.310;2023-07-22T05:05:12;6.68;;;5.13;;
46084;SDS011;31823;47.032;8.310;2023-07-22T05:07:38;8.52;;;5.88;;
46084;SDS011;31823;47.032;8.310;2023-07-22T05:10:03;7.43;;;5.68;;
46084;SDS011;31823;47.032;8.310;2023-07-22T05:12:29;8.88;;;5.60;;
46084;SDS011;31823;47.032;8.310;2023-07-22T05:14:55;7.78;;;5.32;;
46084;SDS011;31823;47.032;8.310;2023-07-22T05:17:20;6.40;;;5.10;;
46084;SDS011;31823;47.032;8.310;2023-07-22T05:19:46;7.75;;;5.28;;
46084;SDS011;31823;47.032;8.310;2023-07-22T05:22:13;7.80;;;4.95;;
46084;SDS011;31823;47.032;8.310;2023-07-22T05:24:39;8.60;;;5.18;;
46084;SDS011;31823;47.032;8.310;2023-07-22T05:27:05;11.00;;;5.07;;
46084;SDS011;31823;47.032;8.310;2023-07-22T05:29:30;8.00;;;5.30;;
46084;SDS011;31823;47.032;8.310;2023-07-22T05:31:56;10.15;;;5.38;;
46084;SDS011;31823;47.032;8.310;2023-07-22T05:34:21;9.57;;;5.28;;
46084;SDS011;31823;47.032;8.310;2023-07-22T05:36:47;9.65;;;5.40;;
46084;SDS011;31823;47.032;8.310;2023-07-22T05:39:13;11.80;;;5.35;;
46084;SDS011;31823;47.032;8.310;2023-07-22T05:41:38;9.80;;;5.57;;
46084;SDS011;31823;47.032;8.310;2023-07-22T05:44:04;9.55;;;5.00;;
46084;SDS011;31823;47.032;8.310;2023-07-22T05:46:29;7.78;;;5.43;;
46084;SDS011;31823;47.032;8.310;2023-07-22T05:48:55;9.52;;;5.38;;
46084;SDS011;31823;47.032;8.310;2023-07-22T05:51:21;6.88;;;5.13;;
46084;SDS011;31823;47.032;8.310;2023-07-22T05:53:47;6.68;;;5.05;;
46084;SDS011;31823;47.032;8.310;2023-07-22T05:56:13;7.25;;;5.43;;
46084;SDS011;31823;47.032;8.310;2023-07-22T05:58:39;8.20;;;6.13;;
46084;SDS011;31823;47.032;8.310;2023-07-22T06:01:04;6.90;;;4.93;;
46084;SDS011;31823;47.032;8.310;2023-07-22T06:03:30;6.45;;;4.93;;
46084;SDS011;31823;47.032;8.310;2023-07-22T06:05:55;7.53;;;5.25;;
46084;SDS011;31823;47.032;8.310;2023-07-22T06:08:21;6.55;;;5.15;;
46084;SDS011;31823;47.032;8.310;2023-07-22T06:10:46;7.55;;;5.68;;
46084;SDS011;31823;47.032;8.310;2023-07-22T06:13:12;10.60;;;5.63;;
46084;SDS011;31823;47.032;8.310;2023-07-22T06:15:38;7.22;;;5.32;;
46084;SDS011;31823;47.032;8.310;2023-07-22T06:18:03;8.35;;;5.45;;
46084;SDS011;31823;47.032;8.310;2023-07-22T06:20:32;7.60;;;6.05;;
46084;SDS011;31823;47.032;8.310;2023-07-22T06:22:58;7.50;;;5.15;;
46084;SDS011;31823;47.032;8.310;2023-07-22T06:25:24;9.52;;;5.65;;
46084;SDS011;31823;47.032;8.310;2023-07-22T06:27:50;7.40;;;5.22;;
46084;SDS011;31823;47.032;8.310;2023-07-22T06:30:15;8.60;;;4.97;;
46084;SDS011;31823;47.032;8.310;2023-07-22T06:32:41;7.40;;;4.93;;
46084;SDS011;31823;47.032;8.310;2023-07-22T06:35:06;12.25;;;5.03;;
46084;SDS011;31823;47.032;8.310;2023-07-22T06:37:32;7.97;;;6.05;;
46084;SDS011;31823;47.032;8.310;2023-07-22T06:39:59;7.95;;;5.60;;
46084;SDS011;31823;47.032;8.310;2023-07-22T06:42:24;8.50;;;5.75;;
46084;SDS011;31823;47.032;8.310;2023-07-22T06:44:51;8.50;;;5.25;;
46084;SDS011;31823;47.032;8.310;2023-07-22T06:47:16;9.95;;;5.10;;
46084;SDS011;31823;47.032;8.310;2023-07-22T06:49:42;7.82;;;4.93;;
46084;SDS011;31823;47.032;8.310;2023-07-22T06:52:07;6.43;;;4.93;;
46084;SDS011;31823;47.032;8.310;2023-07-22T06:54:33;7.63;;;5.10;;
46084;SDS011;31823;47.032;8.310;2023-07-22T06:56:59;7.63;;;5.65;;
46084;SDS011;31823;47.032;8.310;2023-07-22T06:59:25;10.85;;;5.32;;
46084;SDS011;31823;47.032;8.310;2023-07-22T07:01:51;9.70;;;4.75;;
46084;SDS011;31823;47.032;8.310;2023-07-22T07:04:17;7.97;;;5.22;;
46084;SDS011;31823;47.032;8.310;2023-07-22T07:06:43;7.70;;;5.20;;
46084;SDS011;31823;47.032;8.310;2023-07-22T07:09:08;6.78;;;5.38;;
46084;SDS011;31823;47.032;8.310;2023-07-22T07:11:34;9.40;;;5.00;;
46084;SDS011;31823;47.032;8.310;2023-07-22T07:14:00;8.95;;;5.72;;
46084;SDS011;31823;47.032;8.310;2023-07-22T07:16:26;8.05;;;6.00;;
46084;SDS011;31823;47.032;8.310;2023-07-22T07:18:54;7.47;;;5.47;;
46084;SDS011;31823;47.032;8.310;2023-07-22T07:21:20;8.82;;;5.60;;
46084;SDS011;31823;47.032;8.310;2023-07-22T07:23:46;7.70;;;5.60;;
46084;SDS011;31823;47.032;8.310;2023-07-22T07:26:12;6.80;;;4.90;;
46084;SDS011;31823;47.032;8.310;2023-07-22T07:28:38;10.18;;;4.70;;
46084;SDS011;31823;47.032;8.310;2023-07-22T07:31:04;10.02;;;5.15;;
46084;SDS011;31823;47.032;8.310;2023-07-22T07:33:30;5.70;;;4.88;;
46084;SDS011;31823;47.032;8.310;2023-07-22T07:35:55;9.07;;;5.38;;
46084;SDS011;31823;47.032;8.310;2023-07-22T07:38:21;7.20;;;5.35;;
46084;SDS011;31823;47.032;8.310;2023-07-22T07:40:51;6.35;;;5.30;;
46084;SDS011;31823;47.032;8.310;2023-07-22T07:43:17;7.32;;;5.22;;
46084;SDS011;31823;47.032;8.310;2023-07-22T07:45:43;7.28;;;5.45;;
46084;SDS011;31823;47.032;8.310;2023-07-22T07:48:08;6.72;;;5.15;;
46084;SDS011;31823;47.032;8.310;2023-07-22T07:50:34;5.95;;;4.50;;
46084;SDS011;31823;47.032;8.310;2023-07-22T07:52:59;6.13;;;4.43;;
46084;SDS011;31823;47.032;8.310;2023-07-22T07:55:25;6.28;;;4.60;;
46084;SDS011;31823;47.032;8.310;2023-07-22T07:57:50;7.80;;;4.45;;
46084;SDS011;31823;47.032;8.310;2023-07-22T08:00:16;10.23;;;5.43;;
46084;SDS011;31823;47.032;8.310;2023-07-22T08:02:42;6.80;;;4.78;;
46084;SDS011;31823;47.032;8.310;2023-07-22T08:05:08;7.82;;;5.15;;
46084;SDS011;31823;47.032;8.310;2023-07-22T08:07:33;5.38;;;4.82;;
46084;SDS011;31823;47.032;8.310;2023-07-22T08:10:00;6.05;;;4.97;;
46084;SDS011;31823;47.032;8.310;2023-07-22T08:12:26;6.70;;;4.35;;
46084;SDS011;31823;47.032;8.310;2023-07-22T08:14:52;6.40;;;4.65;;
46084;SDS011;31823;47.032;8.310;2023-07-22T08:17:18;7.20;;;5.30;;
46084;SDS011;31823;47.032;8.310;2023-07-22T08:19:44;9.30;;;4.80;;
46084;SDS011;31823;47.032;8.310;2023-07-22T08:22:09;5.63;;;4.47;;
46084;SDS011;31823;47.032;8.310;2023-07-22T08:24:35;5.78;;;4.32;;
46084;SDS011;31823;47.032;8.310;2023-07-22T08:27:01;7.68;;;4.32;;
46084;SDS011;31823;47.032;8.310;2023-07-22T08:29:27;5.20;;;4.18;;
46084;SDS011;31823;47.032;8.310;2023-07-22T08:31:52;9.27;;;4.82;;
46084;SDS011;31823;47.032;8.310;2023-07-22T08:34:18;8.13;;;4.32;;
46084;SDS011;31823;47.032;8.310;2023-07-22T08:36:43;6.07;;;4.38;;
46084;SDS011;31823;47.032;8.310;2023-07-22T08:39:09;6.22;;;4.00;;
46084;SDS011;31823;47.032;8.310;2023-07-22T08:41:34;7.32;;;4.35;;
46084;SDS011;31823;47.032;8.310;2023-07-22T08:44:01;10.98;;;5.03;;
46084;SDS011;31823;47.032;8.310;2023-07-22T08:46:29;8.20;;;4.45;;
46084;SDS011;31823;47.032;8.310;2023-07-22T08:48:58;6.13;;;4.20;;
46084;SDS011;31823;47.032;8.310;2023-07-22T08:51:25;5.03;;;3.60;;
46084;SDS011;31823;47.032;8.310;2023-07-22T08:53:55;4.97;;;3.90;;
46084;SDS011;31823;47.032;8.310;2023-07-22T08:56:24;6.82;;;4.15;;
46084;SDS011;31823;47.032;8.310;2023-07-22T08:58:51;4.70;;;3.55;;
46084;SDS011;31823;47.032;8.310;2023-07-22T09:01:18;7.90;;;4.53;;
46084;SDS011;31823;47.032;8.310;2023-07-22T09:03:43;5.10;;;4.05;;
46084;SDS011;31823;47.032;8.310;2023-07-22T09:06:12;4.75;;;3.70;;
46084;SDS011;31823;47.032;8.310;2023-07-22T09:08:38;7.38;;;4.38;;
46084;SDS011;31823;47.032;8.310;2023-07-22T09:11:04;5.75;;;4.28;;
46084;SDS011;31823;47.032;8.310;2023-07-22T09:13:30;5.78;;;4.60;;
46084;SDS011;31823;47.032;8.310;2023-07-22T09:15:58;5.65;;;3.20;;
46084;SDS011;31823;47.032;8.310;2023-07-22T09:18:27;5.05;;;3.65;;
46084;SDS011;31823;47.032;8.310;2023-07-22T09:20:52;4.28;;;3.08;;
46084;SDS011;31823;47.032;8.310;2023-07-22T09:23:18;6.78;;;3.40;;
46084;SDS011;31823;47.032;8.310;2023-07-22T09:25:43;6.60;;;4.40;;
46084;SDS011;31823;47.032;8.310;2023-07-22T09:28:09;4.85;;;3.75;;
46084;SDS011;31823;47.032;8.310;2023-07-22T09:30:35;5.28;;;3.80;;
46084;SDS011;31823;47.032;8.310;2023-07-22T09:33:03;6.07;;;3.35;;
46084;SDS011;31823;47.032;8.310;2023-07-22T09:35:51;5.47;;;3.58;;
46084;SDS011;31823;47.032;8.310;2023-07-22T09:38:25;5.63;;;4.38;;
46084;SDS011;31823;47.032;8.310;2023-07-22T09:40:51;4.83;;;3.60;;
46084;SDS011;31823;47.032;8.310;2023-07-22T09:43:17;8.02;;;3.70;;
46084;SDS011;31823;47.032;8.310;2023-07-22T09:45:46;8.15;;;5.25;;
46084;SDS011;31823;47.032;8.310;2023-07-22T09:48:12;5.30;;;3.80;;
46084;SDS011;31823;47.032;8.310;2023-07-22T09:50:38;7.93;;;3.92;;
46084;SDS011;31823;47.032;8.310;2023-07-22T09:53:03;12.18;;;5.57;;
46084;SDS011;31823;47.032;8.310;2023-07-22T09:55:30;4.63;;;3.40;;
46084;SDS011;31823;47.032;8.310;2023-07-22T09:58:03;5.53;;;3.85;;
46084;SDS011;31823;47.032;8.310;2023-07-22T10:00:34;5.03;;;3.42;;
46084;SDS011;31823;47.032;8.310;2023-07-22T10:03:01;6.97;;;3.20;;
46084;SDS011;31823;47.032;8.310;2023-07-22T10:05:30;4.43;;;3.58;;
46084;SDS011;31823;47.032;8.310;2023-07-22T10:07:59;4.80;;;3.63;;
46084;SDS011;31823;47.032;8.310;2023-07-22T10:10:31;3.80;;;3.22;;
46084;SDS011;31823;47.032;8.310;2023-07-22T10:13:02;5.68;;;3.88;;
46084;SDS011;31823;47.032;8.310;2023-07-22T10:15:29;5.13;;;3.78;;
46084;SDS011;31823;47.032;8.310;2023-07-22T10:17:58;4.90;;;3.40;;
46084;SDS011;31823;47.032;8.310;2023-07-22T10:20:24;4.32;;;3.05;;
46084;SDS011;31823;47.032;8.310;2023-07-22T10:22:50;3.83;;;3.20;;
46084;SDS011;31823;47.032;8.310;2023-07-22T10:25:17;4.30;;;3.15;;
46084;SDS011;31823;47.032;8.310;2023-07-22T10:27:44;5.60;;;3.75;;
46084;SDS011;31823;47.032;8.310;2023-07-22T10:30:10;5.10;;;3.65;;
46084;SDS011;31823;47.032;8.310;2023-07-22T10:32:38;4.32;;;3.20;;
46084;SDS011;31823;47.032;8.310;2023-07-22T10:35:12;5.60;;;3.75;;
46084;SDS011;31823;47.032;8.310;2023-07-22T10:37:56;5.55;;;2.83;;
46084;SDS011;31823;47.032;8.310;2023-07-22T10:40:54;4.72;;;2.72;;
46084;SDS011;31823;47.032;8.310;2023-07-22T10:43:27;4.93;;;3.22;;
46084;SDS011;31823;47.032;8.310;2023-07-22T10:45:56;5.38;;;3.60;;
46084;SDS011;31823;47.032;8.310;2023-07-22T10:48:27;4.75;;;3.63;;
46084;SDS011;31823;47.032;8.310;2023-07-22T10:51:04;6.60;;;3.58;;
46084;SDS011;31823;47.032;8.310;2023-07-22T10:53:31;3.22;;;2.50;;
46084;SDS011;31823;47.032;8.310;2023-07-22T11:14:32;4.47;;;3.00;;
46084;SDS011;31823;47.032;8.310;2023-07-22T11:17:18;3.97;;;3.00;;
46084;SDS011;31823;47.032;8.310;2023-07-22T11:19:54;4.25;;;2.85;;
46084;SDS011;31823;47.032;8.310;2023-07-22T11:22:21;4.60;;;3.10;;
46084;SDS011;31823;47.032;8.310;2023-07-22T11:24:46;5.80;;;3.78;;
46084;SDS011;31823;47.032;8.310;2023-07-22T11:27:12;6.15;;;3.85;;
46084;SDS011;31823;47.032;8.310;2023-07-22T11:29:38;4.03;;;3.00;;
46084;SDS011;31823;47.032;8.310;2023-07-22T11:32:04;7.20;;;3.20;;
46084;SDS011;31823;47.032;8.310;2023-07-22T11:34:31;4.07;;;3.03;;
46084;SDS011;31823;47.032;8.310;2023-07-22T11:36:56;4.95;;;3.40;;
46084;SDS011;31823;47.032;8.310;2023-07-22T11:39:24;4.53;;;3.15;;
46084;SDS011;31823;47.032;8.310;2023-07-22T11:41:50;5.15;;;3.10;;
46084;SDS011;31823;47.032;8.310;2023-07-22T11:44:17;3.80;;;3.15;;
46084;SDS011;31823;47.032;8.310;2023-07-22T11:46:49;4.10;;;2.88;;
46084;SDS011;31823;47.032;8.310;2023-07-22T11:52:16;5.40;;;3.35;;
46084;SDS011;31823;47.032;8.310;2023-07-22T11:54:43;4.15;;;2.55;;
46084;SDS011;31823;47.032;8.310;2023-07-22T11:59:37;3.70;;;2.85;;
46084;SDS011;31823;47.032;8.310;2023-07-22T12:02:04;5.10;;;3.33;;
46084;SDS011;31823;47.032;8.310;2023-07-22T12:04:31;4.32;;;2.95;;
46084;SDS011;31823;47.032;8.310;2023-07-22T12:06:58;3.80;;;3.10;;
46084;SDS011;31823;47.032;8.310;2023-07-22T12:09:24;4.10;;;3.00;;
46084;SDS011;31823;47.032;8.310;2023-07-22T12:12:00;4.00;;;3.30;;
46084;SDS011;31823;47.032;8.310;2023-07-22T12:14:32;4.72;;;3.45;;
46084;SDS011;31823;47.032;8.310;2023-07-22T12:17:02;7.35;;;3.22;;
46084;SDS011;31823;47.032;8.310;2023-07-22T12:19:28;4.45;;;3.20;;
46084;SDS011;31823;47.032;8.310;2023-07-22T12:21:55;4.75;;;2.85;;
46084;SDS011;31823;47.032;8.310;2023-07-22T12:24:21;3.38;;;2.67;;
46084;SDS011;31823;47.032;8.310;2023-07-22T12:26:46;4.95;;;3.10;;
46084;SDS011;31823;47.032;8.310;2023-07-22T12:29:12;4.40;;;3.35;;
46084;SDS011;31823;47.032;8.310;2023-07-22T12:31:37;5.47;;;3.00;;
46084;SDS011;31823;47.032;8.310;2023-07-22T12:34:03;5.10;;;2.90;;
46084;SDS011;31823;47.032;8.310;2023-07-22T12:36:28;5.00;;;3.10;;
46084;SDS011;31823;47.032;8.310;2023-07-22T12:38:54;3.35;;;2.90;;
46084;SDS011;31823;47.032;8.310;2023-07-22T12:41:20;4.38;;;3.28;;
46084;SDS011;31823;47.032;8.310;2023-07-22T12:43:45;4.93;;;2.92;;
46084;SDS011;31823;47.032;8.310;2023-07-22T12:46:11;4.18;;;3.10;;
46084;SDS011;31823;47.032;8.310;2023-07-22T12:48:36;3.25;;;2.78;;
46084;SDS011;31823;47.032;8.310;2023-07-22T12:51:02;4.75;;;3.10;;
46084;SDS011;31823;47.032;8.310;2023-07-22T12:53:27;6.55;;;3.50;;
46084;SDS011;31823;47.032;8.310;2023-07-22T12:55:53;6.65;;;3.28;;
46084;SDS011;31823;47.032;8.310;2023-07-22T12:58:19;4.13;;;2.75;;
46084;SDS011;31823;47.032;8.310;2023-07-22T13:00:44;4.82;;;2.75;;
46084;SDS011;31823;47.032;8.310;2023-07-22T13:03:10;5.15;;;2.80;;
46084;SDS011;31823;47.032;8.310;2023-07-22T13:05:36;3.38;;;2.90;;
46084;SDS011;31823;47.032;8.310;2023-07-22T13:08:01;3.47;;;2.83;;
46084;SDS011;31823;47.032;8.310;2023-07-22T13:10:27;5.70;;;3.38;;
46084;SDS011;31823;47.032;8.310;2023-07-22T13:12:54;3.85;;;3.15;;
46084;SDS011;31823;47.032;8.310;2023-07-22T13:15:20;3.60;;;2.90;;
46084;SDS011;31823;47.032;8.310;2023-07-22T13:17:45;5.32;;;3.45;;
46084;SDS011;31823;47.032;8.310;2023-07-22T13:20:11;3.60;;;2.97;;
46084;SDS011;31823;47.032;8.310;2023-07-22T13:22:37;10.13;;;4.00;;
46084;SDS011;31823;47.032;8.310;2023-07-22T13:25:03;6.60;;;3.53;;
46084;SDS011;31823;47.032;8.310;2023-07-22T13:27:29;8.35;;;3.30;;
46084;SDS011;31823;47.032;8.310;2023-07-22T13:29:55;4.90;;;3.08;;
46084;SDS011;31823;47.032;8.310;2023-07-22T13:32:20;5.07;;;3.03;;
46084;SDS011;31823;47.032;8.310;2023-07-22T13:34:46;5.63;;;3.05;;
46084;SDS011;31823;47.032;8.310;2023-07-22T13:37:11;7.40;;;3.28;;
46084;SDS011;31823;47.032;8.310;2023-07-22T13:39:37;4.20;;;2.83;;
46084;SDS011;31823;47.032;8.310;2023-07-22T13:42:02;7.13;;;4.38;;
46084;SDS011;31823;47.032;8.310;2023-07-22T13:44:28;5.10;;;3.00;;
46084;SDS011;31823;47.032;8.310;2023-07-22T13:46:54;5.00;;;3.38;;
46084;SDS011;31823;47.032;8.310;2023-07-22T13:49:19;5.85;;;3.50;;
46084;SDS011;31823;47.032;8.310;2023-07-22T13:51:45;4.80;;;3.08;;
46084;SDS011;31823;47.032;8.310;2023-07-22T13:54:11;4.43;;;2.88;;
46084;SDS011;31823;47.032;8.310;2023-07-22T13:56:37;7.65;;;3.10;;
46084;SDS011;31823;47.032;8.310;2023-07-22T13:59:02;5.68;;;3.10;;
46084;SDS011;31823;47.032;8.310;2023-07-22T14:01:29;3.63;;;3.20;;
46084;SDS011;31823;47.032;8.310;2023-07-22T14:03:56;4.60;;;2.88;;
46084;SDS011;31823;47.032;8.310;2023-07-22T14:06:22;8.43;;;3.15;;
46084;SDS011;31823;47.032;8.310;2023-07-22T14:08:47;5.65;;;3.25;;
46084;SDS011;31823;47.032;8.310;2023-07-22T14:11:13;5.68;;;2.85;;
46084;SDS011;31823;47.032;8.310;2023-07-22T14:13:38;7.13;;;3.17;;
46084;SDS011;31823;47.032;8.310;2023-07-22T14:16:04;5.93;;;2.78;;
46084;SDS011;31823;47.032;8.310;2023-07-22T14:18:29;5.55;;;3.28;;
46084;SDS011;31823;47.032;8.310;2023-07-22T14:20:55;4.35;;;3.05;;
46084;SDS011;31823;47.032;8.310;2023-07-22T14:23:20;4.82;;;2.95;;
46084;SDS011;31823;47.032;8.310;2023-07-22T14:25:46;3.35;;;3.05;;
46084;SDS011;31823;47.032;8.310;2023-07-22T14:28:12;4.35;;;3.00;;
46084;SDS011;31823;47.032;8.310;2023-07-22T14:30:37;2.97;;;2.55;;
46084;SDS011;31823;47.032;8.310;2023-07-22T14:33:03;8.77;;;3.22;;
46084;SDS011;31823;47.032;8.310;2023-07-22T14:35:28;6.63;;;3.10;;
46084;SDS011;31823;47.032;8.310;2023-07-22T14:37:54;3.22;;;2.92;;
46084;SDS011;31823;47.032;8.310;2023-07-22T14:40:19;5.63;;;3.25;;
46084;SDS011;31823;47.032;8.310;2023-07-22T14:42:45;3.92;;;2.90;;
46084;SDS011;31823;47.032;8.310;2023-07-22T14:45:10;3.95;;;3.42;;
46084;SDS011;31823;47.032;8.310;2023-07-22T14:47:36;4.03;;;3.63;;
46084;SDS011;31823;47.032;8.310;2023-07-22T14:50:02;4.03;;;2.65;;
46084;SDS011;31823;47.032;8.310;2023-07-22T14:52:27;3.85;;;3.00;;
46084;SDS011;31823;47.032;8.310;2023-07-22T14:54:53;4.38;;;3.28;;
46084;SDS011;31823;47.032;8.310;2023-07-22T14:57:18;4.50;;;2.90;;
46084;SDS011;31823;47.032;8.310;2023-07-22T14:59:44;4.78;;;2.70;;
46084;SDS011;31823;47.032;8.310;2023-07-22T15:02:09;6.75;;;3.08;;
46084;SDS011;31823;47.032;8.310;2023-07-22T15:04:35;4.32;;;2.67;;